sensor_id;sensor_type;location;lat;lon;timestamp;P1;durP1;ratioP1;P2;durP2;ratioP2
8397;SDS011;4236;54.504;9.588;2022-09-30T00:01:01;27.90;;;26.40;;
8397;SDS011;4236;54.504;9.588;2022-09-30T00:03:28;29.23;;;27.57;;
8397;SDS011;4236;54.504;9.588;2022-09-30T00:05:57;30.03;;;28.13;;
8397;SDS011;4236;54.504;9.588;2022-09-30T00:08:33;29.60;;;27.90;;
8397;SDS011;4236;54.504;9.588;2022-09-30T00:11:01;29.47;;;27.73;;
8397;SDS011;4236;54.504;9.588;2022-09-30T00:13:30;28.83;;;27.23;;
8397;SDS011;4236;54.504;9.588;2022-09-30T00:15:57;28.73;;;26.97;;
8397;SDS011;4236;54.504;9.588;2022-09-30T00:18:26;28.80;;;27.40;;
8397;SDS011;4236;54.504;9.588;2022-09-30T00:20:54;29.47;;;27.77;;
8397;SDS011;4236;54.504;9.588;2022-09-30T00:23:24;29.87;;;28.17;;
8397;SDS011;4236;54.504;9.588;2022-09-30T00:25:56;28.63;;;27.00;;
8397;SDS011;4236;54.504;9.588;2022-09-30T00:28:25;29.17;;;27.53;;
8397;SDS011;4236;54.504;9.588;2022-09-30T00:30:53;28.63;;;27.00;;
8397;SDS011;4236;54.504;9.588;2022-09-30T00:33:21;29.33;;;27.57;;
8397;SDS011;4236;54.504;9.588;2022-09-30T00:35:48;29.13;;;27.43;;
8397;SDS011;4236;54.504;9.588;2022-09-30T00:38:16;29.07;;;27.17;;
8397;SDS011;4236;54.504;9.588;2022-09-30T00:40:45;29.80;;;27.90;;
8397;SDS011;4236;54.504;9.588;2022-09-30T00:43:13;28.03;;;26.53;;
8397;SDS011;4236;54.504;9.588;2022-09-30T00:45:43;28.80;;;27.00;;
8397;SDS011;4236;54.504;9.588;2022-09-30T00:48:18;30.13;;;27.93;;
8397;SDS011;4236;54.504;9.588;2022-09-30T00:50:50;29.33;;;27.63;;
8397;SDS011;4236;54.504;9.588;2022-09-30T00:53:21;29.60;;;27.80;;
8397;SDS011;4236;54.504;9.588;2022-09-30T00:55:57;27.80;;;26.30;;
8397;SDS011;4236;54.504;9.588;2022-09-30T00:58:29;27.30;;;25.90;;
8397;SDS011;4236;54.504;9.588;2022-09-30T01:01:01;28.73;;;27.10;;
8397;SDS011;4236;54.504;9.588;2022-09-30T01:03:30;27.83;;;26.20;;
8397;SDS011;4236;54.504;9.588;2022-09-30T01:05:59;27.47;;;26.00;;
8397;SDS011;4236;54.504;9.588;2022-09-30T01:08:28;28.43;;;26.60;;
8397;SDS011;4236;54.504;9.588;2022-09-30T01:11:00;27.37;;;25.87;;
8397;SDS011;4236;54.504;9.588;2022-09-30T01:13:33;29.80;;;27.97;;
8397;SDS011;4236;54.504;9.588;2022-09-30T01:16:05;27.83;;;26.40;;
8397;SDS011;4236;54.504;9.588;2022-09-30T01:18:53;29.60;;;27.60;;
8397;SDS011;4236;54.504;9.588;2022-09-30T01:21:37;27.90;;;26.40;;
8397;SDS011;4236;54.504;9.588;2022-09-30T01:24:20;28.90;;;27.23;;
8397;SDS011;4236;54.504;9.588;2022-09-30T01:30:10;28.97;;;26.93;;
8397;SDS011;4236;54.504;9.588;2022-09-30T01:35:53;30.10;;;28.33;;
8397;SDS011;4236;54.504;9.588;2022-09-30T01:38:34;28.90;;;27.27;;
8397;SDS011;4236;54.504;9.588;2022-09-30T01:41:12;28.20;;;26.50;;
8397;SDS011;4236;54.504;9.588;2022-09-30T01:43:50;28.77;;;27.27;;
8397;SDS011;4236;54.504;9.588;2022-09-30T01:46:27;27.27;;;25.77;;
8397;SDS011;4236;54.504;9.588;2022-09-30T01:49:01;28.53;;;26.83;;
8397;SDS011;4236;54.504;9.588;2022-09-30T01:51:39;28.47;;;26.77;;
8397;SDS011;4236;54.504;9.588;2022-09-30T01:54:11;28.70;;;27.00;;
8397;SDS011;4236;54.504;9.588;2022-09-30T01:56:45;29.17;;;27.57;;
8397;SDS011;4236;54.504;9.588;2022-09-30T01:59:17;30.07;;;28.43;;
8397;SDS011;4236;54.504;9.588;2022-09-30T02:01:50;28.77;;;27.07;;
8397;SDS011;4236;54.504;9.588;2022-09-30T02:04:22;27.87;;;26.43;;
8397;SDS011;4236;54.504;9.588;2022-09-30T02:06:55;28.17;;;26.67;;
8397;SDS011;4236;54.504;9.588;2022-09-30T02:09:28;30.10;;;28.10;;
8397;SDS011;4236;54.504;9.588;2022-09-30T02:12:01;29.93;;;27.93;;
8397;SDS011;4236;54.504;9.588;2022-09-30T02:14:34;29.73;;;28.03;;
8397;SDS011;4236;54.504;9.588;2022-09-30T02:17:06;29.37;;;27.87;;
8397;SDS011;4236;54.504;9.588;2022-09-30T02:19:42;30.27;;;27.67;;
8397;SDS011;4236;54.504;9.588;2022-09-30T02:22:15;29.17;;;27.67;;
8397;SDS011;4236;54.504;9.588;2022-09-30T02:24:45;28.63;;;27.23;;
8397;SDS011;4236;54.504;9.588;2022-09-30T02:27:18;29.03;;;27.03;;
8397;SDS011;4236;54.504;9.588;2022-09-30T02:29:52;28.13;;;26.53;;
8397;SDS011;4236;54.504;9.588;2022-09-30T02:32:23;30.60;;;28.20;;
8397;SDS011;4236;54.504;9.588;2022-09-30T02:34:54;28.57;;;27.03;;
8397;SDS011;4236;54.504;9.588;2022-09-30T02:37:29;27.50;;;26.10;;
8397;SDS011;4236;54.504;9.588;2022-09-30T02:40:01;30.07;;;27.70;;
8397;SDS011;4236;54.504;9.588;2022-09-30T02:42:33;28.70;;;26.87;;
8397;SDS011;4236;54.504;9.588;2022-09-30T02:45:02;28.90;;;27.17;;
8397;SDS011;4236;54.504;9.588;2022-09-30T02:47:38;28.00;;;26.50;;
8397;SDS011;4236;54.504;9.588;2022-09-30T02:50:15;28.80;;;27.40;;
8397;SDS011;4236;54.504;9.588;2022-09-30T02:52:50;27.67;;;26.17;;
8397;SDS011;4236;54.504;9.588;2022-09-30T02:55:30;28.53;;;27.07;;
8397;SDS011;4236;54.504;9.588;2022-09-30T02:58:03;28.47;;;26.87;;
8397;SDS011;4236;54.504;9.588;2022-09-30T03:00:35;28.37;;;26.87;;
8397;SDS011;4236;54.504;9.588;2022-09-30T03:03:04;29.50;;;27.67;;
8397;SDS011;4236;54.504;9.588;2022-09-30T03:05:35;30.70;;;28.20;;
8397;SDS011;4236;54.504;9.588;2022-09-30T03:08:04;30.23;;;28.23;;
8397;SDS011;4236;54.504;9.588;2022-09-30T03:10:32;28.43;;;26.90;;
8397;SDS011;4236;54.504;9.588;2022-09-30T03:13:07;30.67;;;28.40;;
8397;SDS011;4236;54.504;9.588;2022-09-30T03:18:15;28.00;;;26.40;;
8397;SDS011;4236;54.504;9.588;2022-09-30T03:20:59;28.90;;;27.30;;
8397;SDS011;4236;54.504;9.588;2022-09-30T03:23:56;29.20;;;27.33;;
8397;SDS011;4236;54.504;9.588;2022-09-30T03:26:39;30.17;;;28.43;;
8397;SDS011;4236;54.504;9.588;2022-09-30T03:29:19;29.17;;;27.30;;
8397;SDS011;4236;54.504;9.588;2022-09-30T03:31:56;29.60;;;28.00;;
8397;SDS011;4236;54.504;9.588;2022-09-30T03:34:35;29.33;;;27.53;;
8397;SDS011;4236;54.504;9.588;2022-09-30T03:37:10;30.63;;;28.73;;
8397;SDS011;4236;54.504;9.588;2022-09-30T03:39:50;29.00;;;27.30;;
8397;SDS011;4236;54.504;9.588;2022-09-30T03:42:23;29.17;;;27.57;;
8397;SDS011;4236;54.504;9.588;2022-09-30T03:44:56;29.43;;;27.90;;
8397;SDS011;4236;54.504;9.588;2022-09-30T03:47:29;29.93;;;28.13;;
8397;SDS011;4236;54.504;9.588;2022-09-30T03:50:01;29.73;;;27.67;;
8397;SDS011;4236;54.504;9.588;2022-09-30T03:52:33;31.60;;;29.50;;
8397;SDS011;4236;54.504;9.588;2022-09-30T03:55:04;30.23;;;28.23;;
8397;SDS011;4236;54.504;9.588;2022-09-30T03:57:34;30.20;;;28.33;;
8397;SDS011;4236;54.504;9.588;2022-09-30T04:00:02;29.90;;;28.10;;
8397;SDS011;4236;54.504;9.588;2022-09-30T04:02:31;30.73;;;29.00;;
8397;SDS011;4236;54.504;9.588;2022-09-30T04:05:02;29.63;;;27.93;;
8397;SDS011;4236;54.504;9.588;2022-09-30T04:07:31;30.60;;;28.80;;
8397;SDS011;4236;54.504;9.588;2022-09-30T04:09:59;29.23;;;27.53;;
8397;SDS011;4236;54.504;9.588;2022-09-30T04:12:28;31.97;;;29.70;;
8397;SDS011;4236;54.504;9.588;2022-09-30T04:14:55;30.20;;;28.47;;
8397;SDS011;4236;54.504;9.588;2022-09-30T04:17:23;30.80;;;28.10;;
8397;SDS011;4236;54.504;9.588;2022-09-30T04:19:50;30.03;;;28.13;;
8397;SDS011;4236;54.504;9.588;2022-09-30T04:22:18;29.87;;;28.07;;
8397;SDS011;4236;54.504;9.588;2022-09-30T04:24:51;29.90;;;28.10;;
8397;SDS011;4236;54.504;9.588;2022-09-30T04:27:19;29.60;;;27.60;;
8397;SDS011;4236;54.504;9.588;2022-09-30T04:29:48;30.17;;;27.93;;
8397;SDS011;4236;54.504;9.588;2022-09-30T04:32:15;31.50;;;29.70;;
8397;SDS011;4236;54.504;9.588;2022-09-30T04:34:43;30.70;;;28.80;;
8397;SDS011;4236;54.504;9.588;2022-09-30T04:37:10;31.03;;;29.13;;
8397;SDS011;4236;54.504;9.588;2022-09-30T04:39:39;31.53;;;29.53;;
8397;SDS011;4236;54.504;9.588;2022-09-30T04:42:06;29.53;;;27.83;;
8397;SDS011;4236;54.504;9.588;2022-09-30T04:44:34;30.50;;;28.60;;
8397;SDS011;4236;54.504;9.588;2022-09-30T04:47:03;31.27;;;29.37;;
8397;SDS011;4236;54.504;9.588;2022-09-30T04:49:31;30.93;;;28.93;;
8397;SDS011;4236;54.504;9.588;2022-09-30T04:51:59;32.87;;;30.77;;
8397;SDS011;4236;54.504;9.588;2022-09-30T04:54:27;30.53;;;28.67;;
8397;SDS011;4236;54.504;9.588;2022-09-30T04:56:54;32.30;;;30.33;;
8397;SDS011;4236;54.504;9.588;2022-09-30T04:59:22;32.43;;;30.37;;
8397;SDS011;4236;54.504;9.588;2022-09-30T05:01:49;32.40;;;30.40;;
8397;SDS011;4236;54.504;9.588;2022-09-30T05:04:18;31.40;;;29.50;;
8397;SDS011;4236;54.504;9.588;2022-09-30T05:06:46;32.33;;;30.13;;
8397;SDS011;4236;54.504;9.588;2022-09-30T05:09:14;31.60;;;29.37;;
8397;SDS011;4236;54.504;9.588;2022-09-30T05:11:42;31.20;;;29.40;;
8397;SDS011;4236;54.504;9.588;2022-09-30T05:14:09;32.30;;;30.00;;
8397;SDS011;4236;54.504;9.588;2022-09-30T05:16:37;31.67;;;29.77;;
8397;SDS011;4236;54.504;9.588;2022-09-30T05:19:05;30.40;;;28.60;;
8397;SDS011;4236;54.504;9.588;2022-09-30T05:21:34;31.10;;;29.30;;
8397;SDS011;4236;54.504;9.588;2022-09-30T05:24:01;33.37;;;30.97;;
8397;SDS011;4236;54.504;9.588;2022-09-30T05:26:29;30.17;;;28.37;;
8397;SDS011;4236;54.504;9.588;2022-09-30T05:28:58;30.10;;;28.10;;
8397;SDS011;4236;54.504;9.588;2022-09-30T05:31:25;32.13;;;30.13;;
8397;SDS011;4236;54.504;9.588;2022-09-30T05:33:53;31.67;;;29.77;;
8397;SDS011;4236;54.504;9.588;2022-09-30T05:36:23;31.57;;;29.43;;
8397;SDS011;4236;54.504;9.588;2022-09-30T05:38:52;32.37;;;30.33;;
8397;SDS011;4236;54.504;9.588;2022-09-30T05:41:20;30.93;;;29.13;;
8397;SDS011;4236;54.504;9.588;2022-09-30T05:43:49;31.53;;;29.63;;
8397;SDS011;4236;54.504;9.588;2022-09-30T05:46:18;30.80;;;28.60;;
8397;SDS011;4236;54.504;9.588;2022-09-30T05:48:46;31.97;;;29.40;;
8397;SDS011;4236;54.504;9.588;2022-09-30T05:51:13;31.37;;;29.40;;
8397;SDS011;4236;54.504;9.588;2022-09-30T05:53:41;31.50;;;29.30;;
8397;SDS011;4236;54.504;9.588;2022-09-30T05:56:11;32.60;;;30.23;;
8397;SDS011;4236;54.504;9.588;2022-09-30T05:58:39;31.00;;;29.07;;
8397;SDS011;4236;54.504;9.588;2022-09-30T06:01:07;32.67;;;30.57;;
8397;SDS011;4236;54.504;9.588;2022-09-30T06:03:39;33.47;;;31.10;;
8397;SDS011;4236;54.504;9.588;2022-09-30T06:06:07;31.90;;;29.90;;
8397;SDS011;4236;54.504;9.588;2022-09-30T06:08:35;32.63;;;30.53;;
8397;SDS011;4236;54.504;9.588;2022-09-30T06:11:06;32.27;;;30.33;;
8397;SDS011;4236;54.504;9.588;2022-09-30T06:13:38;31.50;;;29.50;;
8397;SDS011;4236;54.504;9.588;2022-09-30T06:16:06;31.57;;;29.37;;
8397;SDS011;4236;54.504;9.588;2022-09-30T06:18:35;30.33;;;28.30;;
8397;SDS011;4236;54.504;9.588;2022-09-30T06:21:04;33.30;;;31.00;;
8397;SDS011;4236;54.504;9.588;2022-09-30T06:23:32;30.57;;;27.90;;
8397;SDS011;4236;54.504;9.588;2022-09-30T06:26:00;31.00;;;29.20;;
8397;SDS011;4236;54.504;9.588;2022-09-30T06:28:29;30.63;;;28.83;;
8397;SDS011;4236;54.504;9.588;2022-09-30T06:31:00;33.20;;;30.97;;
8397;SDS011;4236;54.504;9.588;2022-09-30T06:33:28;30.77;;;28.97;;
8397;SDS011;4236;54.504;9.588;2022-09-30T06:35:57;33.17;;;31.07;;
8397;SDS011;4236;54.504;9.588;2022-09-30T06:38:24;32.13;;;30.00;;
8397;SDS011;4236;54.504;9.588;2022-09-30T06:40:53;31.10;;;29.40;;
8397;SDS011;4236;54.504;9.588;2022-09-30T06:43:21;31.67;;;29.77;;
8397;SDS011;4236;54.504;9.588;2022-09-30T06:45:49;30.90;;;29.00;;
8397;SDS011;4236;54.504;9.588;2022-09-30T06:48:20;32.33;;;30.33;;
8397;SDS011;4236;54.504;9.588;2022-09-30T06:51:03;31.10;;;29.10;;
8397;SDS011;4236;54.504;9.588;2022-09-30T06:53:30;31.57;;;29.70;;
8397;SDS011;4236;54.504;9.588;2022-09-30T06:56:00;32.77;;;30.57;;
8397;SDS011;4236;54.504;9.588;2022-09-30T06:58:28;32.60;;;30.77;;
8397;SDS011;4236;54.504;9.588;2022-09-30T07:00:56;32.53;;;30.63;;
8397;SDS011;4236;54.504;9.588;2022-09-30T07:03:30;33.03;;;31.13;;
8397;SDS011;4236;54.504;9.588;2022-09-30T07:05:59;33.57;;;31.53;;
8397;SDS011;4236;54.504;9.588;2022-09-30T07:08:29;31.70;;;29.60;;
8397;SDS011;4236;54.504;9.588;2022-09-30T07:10:59;30.90;;;29.10;;
8397;SDS011;4236;54.504;9.588;2022-09-30T07:13:27;32.47;;;30.37;;
8397;SDS011;4236;54.504;9.588;2022-09-30T07:15:55;32.80;;;30.80;;
8397;SDS011;4236;54.504;9.588;2022-09-30T07:18:23;31.73;;;29.93;;
8397;SDS011;4236;54.504;9.588;2022-09-30T07:20:55;31.60;;;29.97;;
8397;SDS011;4236;54.504;9.588;2022-09-30T07:23:22;31.30;;;29.60;;
8397;SDS011;4236;54.504;9.588;2022-09-30T07:25:53;33.80;;;31.50;;
8397;SDS011;4236;54.504;9.588;2022-09-30T07:28:22;32.67;;;30.57;;
8397;SDS011;4236;54.504;9.588;2022-09-30T07:30:53;32.53;;;30.50;;
8397;SDS011;4236;54.504;9.588;2022-09-30T07:33:43;30.17;;;28.17;;
8397;SDS011;4236;54.504;9.588;2022-09-30T07:36:13;33.87;;;31.67;;
8397;SDS011;4236;54.504;9.588;2022-09-30T07:38:44;36.90;;;34.23;;
8397;SDS011;4236;54.504;9.588;2022-09-30T07:41:16;36.93;;;34.17;;
8397;SDS011;4236;54.504;9.588;2022-09-30T07:43:47;33.13;;;31.10;;
8397;SDS011;4236;54.504;9.588;2022-09-30T07:46:17;34.57;;;32.27;;
8397;SDS011;4236;54.504;9.588;2022-09-30T07:48:50;32.00;;;30.10;;
8397;SDS011;4236;54.504;9.588;2022-09-30T07:51:23;33.80;;;31.70;;
8397;SDS011;4236;54.504;9.588;2022-09-30T07:53:56;33.83;;;30.93;;
8397;SDS011;4236;54.504;9.588;2022-09-30T07:56:25;32.57;;;30.60;;
8397;SDS011;4236;54.504;9.588;2022-09-30T07:59:14;32.17;;;30.37;;
8397;SDS011;4236;54.504;9.588;2022-09-30T08:01:41;31.43;;;29.50;;
8397;SDS011;4236;54.504;9.588;2022-09-30T08:04:10;31.00;;;29.10;;
8397;SDS011;4236;54.504;9.588;2022-09-30T08:06:40;30.63;;;28.93;;
8397;SDS011;4236;54.504;9.588;2022-09-30T08:09:10;31.30;;;29.60;;
8397;SDS011;4236;54.504;9.588;2022-09-30T08:11:39;30.40;;;28.87;;
8397;SDS011;4236;54.504;9.588;2022-09-30T08:14:11;30.10;;;28.50;;
8397;SDS011;4236;54.504;9.588;2022-09-30T08:16:40;34.47;;;32.40;;
8397;SDS011;4236;54.504;9.588;2022-09-30T08:19:08;34.23;;;32.03;;
8397;SDS011;4236;54.504;9.588;2022-09-30T08:21:41;32.47;;;30.57;;
8397;SDS011;4236;54.504;9.588;2022-09-30T08:24:09;32.87;;;30.60;;
8397;SDS011;4236;54.504;9.588;2022-09-30T08:26:37;32.57;;;30.77;;
8397;SDS011;4236;54.504;9.588;2022-09-30T08:29:05;30.73;;;29.03;;
8397;SDS011;4236;54.504;9.588;2022-09-30T08:31:33;30.83;;;29.23;;
8397;SDS011;4236;54.504;9.588;2022-09-30T08:34:00;30.13;;;28.60;;
8397;SDS011;4236;54.504;9.588;2022-09-30T08:36:29;30.13;;;28.63;;
8397;SDS011;4236;54.504;9.588;2022-09-30T08:38:58;30.33;;;28.83;;
8397;SDS011;4236;54.504;9.588;2022-09-30T08:41:30;29.73;;;28.00;;
8397;SDS011;4236;54.504;9.588;2022-09-30T08:44:16;29.83;;;28.23;;
8397;SDS011;4236;54.504;9.588;2022-09-30T08:46:53;31.77;;;29.80;;
8397;SDS011;4236;54.504;9.588;2022-09-30T08:49:29;31.93;;;30.20;;
8397;SDS011;4236;54.504;9.588;2022-09-30T08:52:08;33.10;;;31.20;;
8397;SDS011;4236;54.504;9.588;2022-09-30T08:54:57;29.17;;;27.70;;
8397;SDS011;4236;54.504;9.588;2022-09-30T08:57:25;30.13;;;28.70;;
8397;SDS011;4236;54.504;9.588;2022-09-30T09:00:00;29.10;;;27.70;;
8397;SDS011;4236;54.504;9.588;2022-09-30T09:02:32;28.23;;;26.93;;
8397;SDS011;4236;54.504;9.588;2022-09-30T09:05:05;27.97;;;26.63;;
8397;SDS011;4236;54.504;9.588;2022-09-30T09:07:38;26.17;;;25.07;;
8397;SDS011;4236;54.504;9.588;2022-09-30T09:10:17;26.60;;;25.40;;
8397;SDS011;4236;54.504;9.588;2022-09-30T09:12:55;23.50;;;22.50;;
8397;SDS011;4236;54.504;9.588;2022-09-30T09:15:32;24.40;;;23.40;;
8397;SDS011;4236;54.504;9.588;2022-09-30T09:21:19;22.30;;;21.50;;
8397;SDS011;4236;54.504;9.588;2022-09-30T09:23:50;22.07;;;21.27;;
8397;SDS011;4236;54.504;9.588;2022-09-30T09:26:22;21.93;;;21.10;;
8397;SDS011;4236;54.504;9.588;2022-09-30T09:28:55;21.53;;;20.63;;
8397;SDS011;4236;54.504;9.588;2022-09-30T09:31:32;22.43;;;21.60;;
8397;SDS011;4236;54.504;9.588;2022-09-30T09:34:05;20.63;;;19.73;;
8397;SDS011;4236;54.504;9.588;2022-09-30T09:36:48;21.50;;;20.60;;
8397;SDS011;4236;54.504;9.588;2022-09-30T09:39:41;21.13;;;20.37;;
8397;SDS011;4236;54.504;9.588;2022-09-30T09:42:23;20.93;;;20.23;;
8397;SDS011;4236;54.504;9.588;2022-09-30T09:45:11;21.00;;;20.20;;
8397;SDS011;4236;54.504;9.588;2022-09-30T09:47:49;19.90;;;19.10;;
8397;SDS011;4236;54.504;9.588;2022-09-30T09:50:18;20.80;;;19.90;;
8397;SDS011;4236;54.504;9.588;2022-09-30T09:52:56;19.47;;;18.70;;
8397;SDS011;4236;54.504;9.588;2022-09-30T09:55:31;20.43;;;19.53;;
8397;SDS011;4236;54.504;9.588;2022-09-30T09:58:09;18.83;;;18.13;;
8397;SDS011;4236;54.504;9.588;2022-09-30T10:00:39;19.23;;;18.53;;
8397;SDS011;4236;54.504;9.588;2022-09-30T10:03:25;18.70;;;18.10;;
8397;SDS011;4236;54.504;9.588;2022-09-30T10:06:04;18.17;;;17.40;;
8397;SDS011;4236;54.504;9.588;2022-09-30T10:08:34;17.40;;;16.90;;
8397;SDS011;4236;54.504;9.588;2022-09-30T10:11:04;16.97;;;16.37;;
8397;SDS011;4236;54.504;9.588;2022-09-30T10:13:41;15.80;;;15.30;;
8397;SDS011;4236;54.504;9.588;2022-09-30T10:16:23;15.00;;;14.40;;
8397;SDS011;4236;54.504;9.588;2022-09-30T10:18:54;14.90;;;14.40;;
8397;SDS011;4236;54.504;9.588;2022-09-30T10:21:23;13.23;;;12.83;;
8397;SDS011;4236;54.504;9.588;2022-09-30T10:23:52;13.07;;;12.57;;
8397;SDS011;4236;54.504;9.588;2022-09-30T10:26:20;12.10;;;11.80;;
8397;SDS011;4236;54.504;9.588;2022-09-30T10:28:52;11.97;;;11.43;;
8397;SDS011;4236;54.504;9.588;2022-09-30T10:31:21;12.13;;;11.73;;
8397;SDS011;4236;54.504;9.588;2022-09-30T10:33:54;11.00;;;10.60;;
8397;SDS011;4236;54.504;9.588;2022-09-30T10:36:30;10.90;;;10.50;;
8397;SDS011;4236;54.504;9.588;2022-09-30T10:39:00;10.97;;;10.60;;
8397;SDS011;4236;54.504;9.588;2022-09-30T10:41:33;11.53;;;11.13;;
8397;SDS011;4236;54.504;9.588;2022-09-30T10:44:04;11.67;;;11.27;;
8397;SDS011;4236;54.504;9.588;2022-09-30T10:46:39;11.03;;;10.60;;
8397;SDS011;4236;54.504;9.588;2022-09-30T10:49:10;10.27;;;9.97;;
8397;SDS011;4236;54.504;9.588;2022-09-30T10:51:48;9.70;;;9.30;;
8397;SDS011;4236;54.504;9.588;2022-09-30T10:57:15;9.37;;;9.07;;
8397;SDS011;4236;54.504;9.588;2022-09-30T10:59:48;10.40;;;9.70;;
8397;SDS011;4236;54.504;9.588;2022-09-30T11:02:24;10.00;;;9.33;;
8397;SDS011;4236;54.504;9.588;2022-09-30T11:04:58;11.10;;;10.63;;
8397;SDS011;4236;54.504;9.588;2022-09-30T11:07:32;11.23;;;10.80;;
8397;SDS011;4236;54.504;9.588;2022-09-30T11:10:07;10.80;;;10.17;;
8397;SDS011;4236;54.504;9.588;2022-09-30T11:12:45;10.80;;;10.40;;
8397;SDS011;4236;54.504;9.588;2022-09-30T11:15:23;10.93;;;10.43;;
8397;SDS011;4236;54.504;9.588;2022-09-30T11:17:55;11.40;;;10.90;;
8397;SDS011;4236;54.504;9.588;2022-09-30T11:20:27;10.70;;;10.20;;
8397;SDS011;4236;54.504;9.588;2022-09-30T11:23:01;11.70;;;11.20;;
8397;SDS011;4236;54.504;9.588;2022-09-30T11:25:36;10.90;;;10.50;;
8397;SDS011;4236;54.504;9.588;2022-09-30T11:31:16;10.20;;;9.80;;
8397;SDS011;4236;54.504;9.588;2022-09-30T11:33:56;9.60;;;9.20;;
8397;SDS011;4236;54.504;9.588;2022-09-30T11:36:36;10.30;;;9.70;;
8397;SDS011;4236;54.504;9.588;2022-09-30T11:42:16;8.97;;;8.50;;
8397;SDS011;4236;54.504;9.588;2022-09-30T11:44:50;7.83;;;7.43;;
8397;SDS011;4236;54.504;9.588;2022-09-30T11:47:35;7.60;;;7.40;;
8397;SDS011;4236;54.504;9.588;2022-09-30T11:50:28;8.20;;;7.40;;
8397;SDS011;4236;54.504;9.588;2022-09-30T11:53:08;7.17;;;6.97;;
8397;SDS011;4236;54.504;9.588;2022-09-30T11:55:49;7.83;;;7.53;;
8397;SDS011;4236;54.504;9.588;2022-09-30T11:58:33;8.13;;;7.80;;
8397;SDS011;4236;54.504;9.588;2022-09-30T12:01:11;7.90;;;7.40;;
8397;SDS011;4236;54.504;9.588;2022-09-30T12:03:49;8.83;;;8.30;;
8397;SDS011;4236;54.504;9.588;2022-09-30T12:06:24;7.90;;;7.50;;
8397;SDS011;4236;54.504;9.588;2022-09-30T12:08:58;7.10;;;6.90;;
8397;SDS011;4236;54.504;9.588;2022-09-30T12:11:32;8.80;;;8.40;;
8397;SDS011;4236;54.504;9.588;2022-09-30T12:14:08;9.27;;;8.97;;
8397;SDS011;4236;54.504;9.588;2022-09-30T12:16:41;9.60;;;9.30;;
8397;SDS011;4236;54.504;9.588;2022-09-30T12:19:13;9.40;;;9.10;;
8397;SDS011;4236;54.504;9.588;2022-09-30T12:21:52;9.60;;;9.20;;
8397;SDS011;4236;54.504;9.588;2022-09-30T12:24:27;8.90;;;8.50;;
8397;SDS011;4236;54.504;9.588;2022-09-30T12:26:57;9.10;;;8.70;;
8397;SDS011;4236;54.504;9.588;2022-09-30T12:29:27;9.60;;;9.20;;
8397;SDS011;4236;54.504;9.588;2022-09-30T12:32:20;9.40;;;9.00;;
8397;SDS011;4236;54.504;9.588;2022-09-30T12:35:06;9.17;;;8.77;;
8397;SDS011;4236;54.504;9.588;2022-09-30T12:37:56;9.40;;;9.00;;
8397;SDS011;4236;54.504;9.588;2022-09-30T12:40:40;9.20;;;8.47;;
8397;SDS011;4236;54.504;9.588;2022-09-30T12:43:36;8.10;;;7.63;;
8397;SDS011;4236;54.504;9.588;2022-09-30T12:46:18;8.60;;;8.20;;
8397;SDS011;4236;54.504;9.588;2022-09-30T12:48:54;8.43;;;7.93;;
8397;SDS011;4236;54.504;9.588;2022-09-30T12:51:29;7.17;;;6.97;;
8397;SDS011;4236;54.504;9.588;2022-09-30T12:53:59;7.50;;;7.10;;
8397;SDS011;4236;54.504;9.588;2022-09-30T12:56:31;7.53;;;7.20;;
8397;SDS011;4236;54.504;9.588;2022-09-30T12:59:00;7.30;;;6.83;;
8397;SDS011;4236;54.504;9.588;2022-09-30T13:01:29;7.63;;;7.03;;
8397;SDS011;4236;54.504;9.588;2022-09-30T13:04:09;7.90;;;7.50;;
8397;SDS011;4236;54.504;9.588;2022-09-30T13:15:47;7.40;;;7.20;;
8397;SDS011;4236;54.504;9.588;2022-09-30T13:21:21;8.30;;;7.60;;
8397;SDS011;4236;54.504;9.588;2022-09-30T13:23:51;9.40;;;7.23;;
8397;SDS011;4236;54.504;9.588;2022-09-30T13:32:09;8.17;;;7.73;;
8397;SDS011;4236;54.504;9.588;2022-09-30T13:34:47;7.43;;;7.17;;
8397;SDS011;4236;54.504;9.588;2022-09-30T13:37:29;7.10;;;6.80;;
8397;SDS011;4236;54.504;9.588;2022-09-30T13:40:01;8.50;;;7.93;;
8397;SDS011;4236;54.504;9.588;2022-09-30T13:42:32;7.70;;;7.20;;
8397;SDS011;4236;54.504;9.588;2022-09-30T13:45:10;7.30;;;6.90;;
8397;SDS011;4236;54.504;9.588;2022-09-30T13:47:42;7.10;;;6.70;;
8397;SDS011;4236;54.504;9.588;2022-09-30T13:50:12;7.57;;;7.17;;
8397;SDS011;4236;54.504;9.588;2022-09-30T13:52:42;7.10;;;6.80;;
8397;SDS011;4236;54.504;9.588;2022-09-30T13:55:19;7.07;;;6.50;;
8397;SDS011;4236;54.504;9.588;2022-09-30T13:57:53;6.90;;;6.60;;
8397;SDS011;4236;54.504;9.588;2022-09-30T14:00:37;6.77;;;6.30;;
8397;SDS011;4236;54.504;9.588;2022-09-30T14:03:15;6.63;;;6.30;;
8397;SDS011;4236;54.504;9.588;2022-09-30T14:06:00;6.40;;;6.00;;
8397;SDS011;4236;54.504;9.588;2022-09-30T14:11:44;6.00;;;5.60;;
8397;SDS011;4236;54.504;9.588;2022-09-30T14:14:34;6.10;;;5.70;;
8397;SDS011;4236;54.504;9.588;2022-09-30T14:17:22;6.07;;;5.70;;
8397;SDS011;4236;54.504;9.588;2022-09-30T14:20:08;5.70;;;5.40;;
8397;SDS011;4236;54.504;9.588;2022-09-30T14:22:49;6.80;;;6.30;;
8397;SDS011;4236;54.504;9.588;2022-09-30T14:25:17;5.70;;;5.40;;
8397;SDS011;4236;54.504;9.588;2022-09-30T14:27:51;5.40;;;5.20;;
8397;SDS011;4236;54.504;9.588;2022-09-30T14:30:31;5.90;;;5.60;;
8397;SDS011;4236;54.504;9.588;2022-09-30T14:33:08;5.10;;;4.90;;
8397;SDS011;4236;54.504;9.588;2022-09-30T14:35:37;5.70;;;5.50;;
8397;SDS011;4236;54.504;9.588;2022-09-30T14:38:08;5.90;;;5.57;;
8397;SDS011;4236;54.504;9.588;2022-09-30T14:40:47;5.77;;;5.40;;
8397;SDS011;4236;54.504;9.588;2022-09-30T14:43:19;5.40;;;5.20;;
8397;SDS011;4236;54.504;9.588;2022-09-30T14:45:50;6.17;;;5.87;;
8397;SDS011;4236;54.504;9.588;2022-09-30T14:48:22;6.70;;;6.20;;
8397;SDS011;4236;54.504;9.588;2022-09-30T14:50:55;5.60;;;5.30;;
8397;SDS011;4236;54.504;9.588;2022-09-30T14:53:26;5.90;;;5.40;;
8397;SDS011;4236;54.504;9.588;2022-09-30T14:55:55;5.53;;;5.23;;
8397;SDS011;4236;54.504;9.588;2022-09-30T14:58:26;5.40;;;5.10;;
8397;SDS011;4236;54.504;9.588;2022-09-30T15:01:02;5.60;;;5.20;;
8397;SDS011;4236;54.504;9.588;2022-09-30T15:03:33;5.43;;;5.23;;
8397;SDS011;4236;54.504;9.588;2022-09-30T15:06:04;5.60;;;5.40;;
8397;SDS011;4236;54.504;9.588;2022-09-30T15:08:42;5.70;;;5.30;;
8397;SDS011;4236;54.504;9.588;2022-09-30T15:11:15;5.50;;;5.30;;
8397;SDS011;4236;54.504;9.588;2022-09-30T15:13:45;5.50;;;5.30;;
8397;SDS011;4236;54.504;9.588;2022-09-30T15:16:21;5.37;;;4.87;;
8397;SDS011;4236;54.504;9.588;2022-09-30T15:18:49;5.20;;;5.00;;
8397;SDS011;4236;54.504;9.588;2022-09-30T15:21:16;4.63;;;4.53;;
8397;SDS011;4236;54.504;9.588;2022-09-30T15:23:45;5.63;;;5.37;;
8397;SDS011;4236;54.504;9.588;2022-09-30T15:26:17;5.30;;;5.07;;
8397;SDS011;4236;54.504;9.588;2022-09-30T15:28:49;5.07;;;4.77;;
8397;SDS011;4236;54.504;9.588;2022-09-30T15:31:19;5.00;;;4.80;;
8397;SDS011;4236;54.504;9.588;2022-09-30T15:33:59;5.17;;;5.07;;
8397;SDS011;4236;54.504;9.588;2022-09-30T15:36:28;4.70;;;4.50;;
8397;SDS011;4236;54.504;9.588;2022-09-30T15:38:57;4.40;;;4.20;;
8397;SDS011;4236;54.504;9.588;2022-09-30T15:41:24;4.93;;;4.73;;
8397;SDS011;4236;54.504;9.588;2022-09-30T15:43:54;5.90;;;5.73;;
8397;SDS011;4236;54.504;9.588;2022-09-30T15:46:26;6.00;;;5.80;;
8397;SDS011;4236;54.504;9.588;2022-09-30T15:48:57;8.17;;;5.10;;
8397;SDS011;4236;54.504;9.588;2022-09-30T15:51:37;5.40;;;4.97;;
8397;SDS011;4236;54.504;9.588;2022-09-30T15:56:58;5.43;;;5.13;;
8397;SDS011;4236;54.504;9.588;2022-09-30T16:02:25;6.30;;;6.00;;
8397;SDS011;4236;54.504;9.588;2022-09-30T16:04:54;5.73;;;5.53;;
8397;SDS011;4236;54.504;9.588;2022-09-30T16:07:24;6.23;;;5.83;;
8397;SDS011;4236;54.504;9.588;2022-09-30T16:09:54;5.93;;;5.57;;
8397;SDS011;4236;54.504;9.588;2022-09-30T16:12:25;5.70;;;5.50;;
8397;SDS011;4236;54.504;9.588;2022-09-30T16:14:58;5.87;;;5.57;;
8397;SDS011;4236;54.504;9.588;2022-09-30T16:17:33;5.90;;;5.70;;